< < Back
Terminal Aerodrome Forecast


Current Version              Previous Versions:   1  2  3  4  5  6  7  8  9  

Terminal Aerodrome Forecast

632
FTUS42 KGSP 261736
TAFCLT
TAF
KCLT 261736Z 2618/2718 07006KT P6SM SCT045 BKN250
      TEMPO 2618/2622 BKN045
     FM270000 13005KT P6SM FEW060
     FM270800 00000KT P6SM SCT080
     FM271400 22005KT P6SM SCT040=



Latest METAR

003
SAUS70 KWBC 262000
MTRCLT
METAR KCLT 261952Z 00000KT 10SM FEW050 BKN065 31/18 A3015 RMK AO2 CIG
050 RWY 36 SLP200 T03060178 $


USA.gov is the U.S. government's official web portal to all federal, state and local government web resources and services.